ilmateenistus.ee keskkonnaagentuur.ee
EETN Tallinna lennuväli
FTEO31 EETN 162300
TAF EETN 162300Z 1700/1724 24015KT 9999 BKN010 TEMPO 1700/1713 OVC006
    PROB40 TEMPO 1702/1707 4000 RA BECMG 1713/1715 30014KT BKN020 BECMG
    1721/1723 35015G25KT=

METAR EETN 162350Z 24013KT 9999 BKN013 07/05 Q1037 R08/19//95 =
Tallinna lennuväli
EEKA Kärdla lennuväli
METAR EEKA 162350Z NIL=
Kärdla lennuväli
EEKE Kuressaare lennuväli
METAR EEKE 162350Z AUTO 23008KT 200V260 9999NDV FEW017 BKN020 OVC027 07/06 Q1041=
Kuressaare lennuväli
EEPU Pärnu lennuväli
METAR EEPU 162350Z NIL=
Pärnu lennuväli
EETU Tartu lennuväli
FCEO32 EETN 162100
TAF EETU 162100Z 1622/1704 22012KT 9999 BKN015 TEMPO 1622/1704
    BKN007=

METAR EETU 162350Z AUTO 23011KT 9999 OVC013/// 03/00 Q1040=
Tartu lennuväli
EEEI Ämari lennuväli
METAR EEEI 162350Z 21013KT 9999 BKN012 07/05 Q1038 R24/090095=
Ämari lennuväli